createdAt,value
2022-10-26T00:04:38.016Z,99.99
2022-10-26T00:09:37.957Z,99.99
2022-10-26T00:14:37.886Z,99.99
2022-10-26T00:19:37.828Z,99.99
2022-10-26T00:24:37.778Z,99.99
2022-10-26T00:29:37.708Z,99.99
2022-10-26T00:34:37.647Z,99.99
2022-10-26T00:39:37.579Z,99.99
2022-10-26T00:44:37.518Z,99.99
2022-10-26T00:49:37.465Z,99.99
2022-10-26T00:54:37.388Z,99.99
2022-10-26T00:59:37.307Z,99.99
2022-10-26T01:04:37.258Z,99.99
2022-10-26T01:09:37.199Z,99.99
2022-10-26T01:14:37.129Z,99.99
2022-10-26T01:19:37.070Z,99.99
2022-10-26T01:24:37.119Z,99.99
2022-10-26T01:29:37.265Z,99.99
2022-10-26T01:34:36.873Z,99.99
2022-10-26T01:39:36.813Z,99.99
2022-10-26T01:44:36.765Z,99.99
2022-10-26T01:49:36.670Z,99.99
2022-10-26T01:59:36.550Z,99.99
2022-10-26T02:04:36.490Z,99.99
2022-10-26T02:09:36.421Z,99.99
2022-10-26T02:14:36.366Z,99.99
2022-10-26T02:19:36.291Z,99.99
2022-10-26T02:24:36.621Z,99.99
2022-10-26T02:29:36.176Z,99.99
2022-10-26T02:34:36.116Z,99.99
2022-10-26T02:39:36.053Z,99.99
2022-10-26T02:44:35.993Z,99.99
2022-10-26T02:49:35.924Z,99.99
2022-10-26T02:54:35.856Z,99.99
2022-10-26T02:59:35.796Z,99.99
2022-10-26T03:04:35.754Z,99.99
2022-10-26T03:09:35.655Z,99.99
2022-10-26T03:14:35.599Z,99.99
2022-10-26T03:19:35.539Z,99.99
2022-10-26T03:24:35.478Z,99.99
2022-10-26T03:29:35.405Z,99.99
2022-10-26T03:34:35.348Z,99.99
2022-10-26T03:39:35.294Z,99.99
2022-10-26T03:44:35.226Z,99.99
2022-10-26T03:49:35.156Z,99.99
2022-10-26T03:54:35.088Z,99.99
2022-10-26T03:59:35.018Z,99.99
2022-10-26T04:04:35.056Z,99.99
2022-10-26T04:09:34.888Z,99.99
2022-10-26T04:14:35.169Z,99.99
2022-10-26T04:19:34.808Z,99.99
2022-10-26T04:24:34.711Z,99.99
2022-10-26T04:29:34.645Z,99.99
2022-10-26T04:34:34.721Z,99.99
2022-10-26T04:39:34.514Z,99.99
2022-10-26T04:44:34.459Z,99.99
2022-10-26T04:49:34.402Z,99.99
2022-10-26T04:54:34.320Z,99.99
2022-10-26T04:59:34.252Z,99.99
2022-10-26T05:04:34.197Z,99.99
2022-10-26T05:09:34.141Z,99.99
2022-10-26T05:14:34.091Z,99.99
2022-10-26T05:19:34.004Z,99.99
2022-10-26T05:24:33.943Z,99.99
2022-10-26T05:29:33.872Z,99.99
2022-10-26T05:34:37.169Z,99.99
2022-10-26T05:39:34.777Z,99.99
2022-10-26T05:44:34.638Z,99.99
2022-10-26T05:49:33.613Z,99.99
2022-10-26T05:54:33.554Z,99.99
2022-10-26T05:59:33.513Z,99.99
2022-10-26T06:04:33.435Z,99.99
2022-10-26T06:09:33.376Z,99.99
2022-10-26T06:14:33.306Z,99.99
2022-10-26T06:19:33.238Z,99.99
2022-10-26T06:24:33.199Z,99.99
2022-10-26T06:29:33.121Z,99.99
2022-10-26T06:34:33.054Z,99.99
2022-10-26T06:39:33.010Z,99.99
2022-10-26T06:44:32.928Z,99.99
2022-10-26T06:49:32.866Z,99.99
2022-10-26T06:54:32.818Z,99.99
2022-10-26T06:59:32.751Z,99.99
2022-10-26T07:04:32.696Z,99.99
2022-10-26T07:09:32.607Z,99.99
2022-10-26T07:14:32.561Z,99.99
2022-10-26T07:19:32.489Z,99.99
2022-10-26T07:24:32.449Z,99.99
2022-10-26T07:29:32.379Z,99.99
2022-10-26T07:34:32.301Z,99.99
2022-10-26T07:39:32.231Z,99.99
2022-10-26T07:44:32.189Z,99.99
2022-10-26T07:49:32.111Z,99.99
2022-10-26T07:54:32.055Z,99.99
2022-10-26T07:59:31.983Z,99.99
2022-10-26T08:04:31.937Z,99.99
2022-10-26T08:09:31.883Z,99.99
2022-10-26T08:14:31.783Z,99.99
2022-10-26T08:19:31.723Z,99.99
2022-10-26T08:24:31.694Z,99.99
2022-10-26T08:29:31.616Z,99.99
2022-10-26T08:34:31.544Z,99.99
2022-10-26T08:39:31.475Z,99.99
2022-10-26T08:44:31.435Z,99.99
2022-10-26T08:49:31.344Z,99.99
2022-10-26T08:54:31.277Z,99.99
2022-10-26T08:59:31.227Z,99.99
2022-10-26T09:04:31.159Z,99.99
2022-10-26T09:09:31.096Z,99.99
2022-10-26T09:14:31.030Z,99.99
2022-10-26T09:19:30.973Z,99.99
2022-10-26T09:24:30.968Z,99.99
2022-10-26T09:29:30.870Z,99.99
2022-10-26T09:34:30.795Z,99.99
2022-10-26T09:39:30.719Z,99.99
2022-10-26T09:44:30.652Z,99.99
2022-10-26T09:49:30.604Z,99.99
2022-10-26T09:54:30.522Z,99.99
2022-10-26T09:59:30.453Z,99.99
2022-10-26T10:04:30.388Z,99.99
2022-10-26T10:09:30.338Z,99.99
2022-10-26T10:14:31.727Z,99.99
2022-10-26T10:19:30.214Z,98.86
2022-10-26T10:24:30.130Z,98.86
2022-10-26T10:29:30.087Z,97.75
2022-10-26T10:34:30.038Z,98.46
2022-10-26T10:39:29.948Z,98.16
2022-10-26T10:44:29.901Z,96.94
2022-10-26T10:49:29.827Z,96.94
2022-10-26T10:54:29.750Z,97.55
2022-10-26T10:59:29.699Z,97.75
2022-10-26T11:04:29.621Z,97.85
2022-10-26T11:09:29.562Z,97.45
2022-10-26T11:14:29.504Z,97.29
2022-10-26T11:19:29.442Z,97.55
2022-10-26T11:24:29.375Z,97.05
2022-10-26T11:29:30.351Z,96.89
2022-10-26T11:34:29.246Z,95.43
2022-10-26T11:39:29.198Z,96.34
2022-10-26T11:44:29.148Z,95.18
2022-10-26T11:49:29.077Z,95.53
2022-10-26T11:54:29.000Z,95.18
2022-10-26T11:59:32.303Z,94.17
2022-10-26T12:04:28.888Z,94.47
2022-10-26T12:09:32.124Z,94.53
2022-10-26T12:14:29.742Z,93.21
2022-10-26T12:24:28.615Z,92.06
2022-10-26T12:29:28.565Z,91.86
2022-10-26T12:34:28.476Z,92.16
2022-10-26T12:39:28.437Z,92.36
2022-10-26T12:44:28.367Z,91.86
2022-10-26T12:49:28.317Z,92.77
2022-10-26T12:54:28.246Z,92.36
2022-10-26T12:59:28.177Z,92.66
2022-10-26T13:04:28.119Z,92.46
2022-10-26T13:09:28.060Z,92.16
2022-10-26T13:14:28.057Z,92.46
2022-10-26T13:19:27.933Z,92.16
2022-10-26T13:24:27.979Z,92.16
2022-10-26T13:29:27.814Z,93.07
2022-10-26T13:34:27.759Z,93.48
2022-10-26T13:39:27.666Z,93.57
2022-10-26T13:44:27.604Z,93.57
2022-10-26T13:49:27.546Z,93.13
2022-10-26T13:54:27.485Z,92.52
2022-10-26T13:59:27.429Z,92.72
2022-10-26T14:04:27.357Z,91.97
2022-10-26T14:09:27.298Z,91.77
2022-10-26T14:14:27.238Z,92.18
2022-10-26T14:19:27.176Z,91.77
2022-10-26T14:24:45.250Z,92.22
2022-10-26T14:29:28.050Z,92.52
2022-10-26T14:34:26.972Z,92.32
2022-10-26T14:39:26.921Z,91.91
2022-10-26T14:44:26.873Z,91.61
2022-10-26T14:49:26.791Z,91.82
2022-10-26T14:54:26.722Z,91.61
2022-10-26T14:59:26.667Z,92.32
2022-10-26T15:04:26.606Z,92.57
2022-10-26T15:09:26.535Z,92.81
2022-10-26T15:14:26.481Z,93.41
2022-10-26T15:19:26.421Z,93.87
2022-10-26T15:24:26.347Z,94.17
2022-10-26T15:29:26.299Z,94.37
2022-10-26T15:34:26.221Z,95.02
2022-10-26T15:39:26.157Z,94.72
2022-10-26T15:44:26.111Z,94.82
2022-10-26T15:49:26.039Z,94.51
2022-10-26T15:54:25.970Z,94.72
2022-10-26T15:59:25.902Z,95.07
2022-10-26T16:04:25.834Z,95.27
2022-10-26T16:09:25.782Z,95.37
2022-10-26T16:14:27.553Z,95.67
2022-10-26T16:19:30.873Z,96.18
2022-10-26T16:24:26.586Z,96.73
2022-10-26T16:29:25.526Z,96.83
2022-10-26T16:34:25.457Z,97.28
2022-10-26T16:39:25.399Z,97.08
2022-10-26T16:44:25.325Z,97.18
2022-10-26T16:49:25.266Z,97.63
2022-10-26T16:54:25.198Z,98.08
2022-10-26T16:59:25.137Z,98.39
2022-10-26T17:04:25.079Z,98.69
2022-10-26T17:09:25.002Z,98.99
2022-10-26T17:14:24.940Z,99.24
2022-10-26T17:19:24.880Z,99.35
2022-10-26T17:24:24.807Z,99.90
2022-10-26T17:29:24.762Z,99.99
2022-10-26T17:34:24.695Z,99.99
2022-10-26T17:39:24.643Z,99.99
2022-10-26T17:44:24.585Z,99.99
2022-10-26T17:49:26.852Z,99.99
2022-10-26T17:54:24.483Z,99.99
2022-10-26T17:59:24.386Z,99.99
2022-10-26T18:04:24.321Z,99.99
2022-10-26T18:09:24.268Z,99.99
2022-10-26T18:14:24.204Z,99.99
2022-10-26T18:19:24.139Z,99.99
2022-10-26T18:24:24.071Z,99.99
2022-10-26T18:29:24.011Z,99.99
2022-10-26T18:34:24.006Z,99.99
2022-10-26T18:39:23.891Z,99.99
2022-10-26T18:44:23.850Z,99.99
2022-10-26T18:49:23.787Z,99.99
2022-10-26T18:54:25.349Z,99.99
2022-10-26T18:59:23.654Z,99.99
2022-10-26T19:04:23.577Z,99.99
2022-10-26T19:09:23.506Z,99.99
2022-10-26T19:14:23.476Z,99.99
2022-10-26T19:19:23.388Z,99.99
2022-10-26T19:24:23.338Z,99.99
2022-10-26T19:29:23.248Z,99.99
2022-10-26T19:34:23.179Z,99.99
2022-10-26T19:39:23.118Z,99.99
2022-10-26T19:44:25.350Z,99.99
2022-10-26T19:49:22.998Z,99.99
2022-10-26T19:54:22.922Z,99.99
2022-10-26T19:59:22.872Z,99.99
2022-10-26T20:04:22.795Z,99.99
2022-10-26T20:09:22.787Z,99.99
2022-10-26T20:14:22.669Z,99.99
2022-10-26T20:19:22.603Z,99.99
2022-10-26T20:24:22.548Z,99.99
2022-10-26T20:29:22.486Z,99.99
2022-10-26T20:34:22.441Z,99.99
2022-10-26T20:39:22.354Z,99.99
2022-10-26T20:44:22.293Z,99.99
2022-10-26T20:49:22.216Z,99.99
2022-10-26T20:54:22.156Z,99.99
2022-10-26T20:59:22.129Z,99.99
2022-10-26T21:04:22.036Z,99.99
2022-10-26T21:09:23.504Z,99.99
2022-10-26T21:14:21.896Z,99.99
2022-10-26T21:19:21.830Z,99.99
2022-10-26T21:24:21.770Z,99.99
2022-10-26T21:29:21.712Z,99.99
2022-10-26T21:34:21.632Z,99.99
2022-10-26T21:39:21.590Z,99.99
2022-10-26T21:44:35.637Z,99.99
2022-10-26T21:49:22.442Z,99.99
2022-10-26T21:54:21.373Z,99.99
2022-10-26T21:59:21.322Z,99.99
2022-10-26T22:04:21.258Z,99.99
2022-10-26T22:09:21.194Z,99.99
2022-10-26T22:14:21.126Z,99.99
2022-10-26T22:19:21.065Z,99.99
2022-10-26T22:24:21.005Z,99.99
2022-10-26T22:29:20.938Z,99.99
2022-10-26T22:34:20.866Z,99.99
2022-10-26T22:39:20.820Z,99.99
2022-10-26T22:44:20.887Z,99.99
2022-10-26T22:49:20.685Z,99.99
2022-10-26T22:54:20.620Z,99.99
2022-10-26T22:59:20.559Z,99.99
2022-10-26T23:04:20.490Z,99.99
2022-10-26T23:09:20.437Z,99.99
2022-10-26T23:14:20.379Z,99.99
2022-10-26T23:19:20.310Z,99.99
2022-10-26T23:24:20.232Z,99.99
2022-10-26T23:29:20.180Z,99.99
2022-10-26T23:34:20.894Z,99.99
2022-10-26T23:39:20.991Z,99.99
2022-10-26T23:44:19.972Z,99.99
2022-10-26T23:49:19.922Z,99.99
2022-10-26T23:54:19.854Z,99.99
2022-10-26T23:59:19.792Z,99.99
